createdAt,value
2018-06-29T00:00:56.401Z,19.02
2018-06-29T00:03:25.371Z,18.93
2018-06-29T00:05:54.045Z,18.88
2018-06-29T00:08:22.771Z,18.80
2018-06-29T00:10:51.280Z,18.72
2018-06-29T00:13:19.764Z,18.71
2018-06-29T00:15:50.942Z,18.68
2018-06-29T00:18:19.549Z,18.71
2018-06-29T00:20:48.108Z,18.65
2018-06-29T00:23:16.750Z,18.68
2018-06-29T00:25:45.338Z,18.62
2018-06-29T00:28:13.885Z,18.56
2018-06-29T00:30:42.587Z,18.56
2018-06-29T00:33:11.449Z,18.47
2018-06-29T00:35:40.247Z,18.41
2018-06-29T00:38:08.834Z,18.39
2018-06-29T00:40:37.861Z,18.33
2018-06-29T00:43:06.579Z,18.36
2018-06-29T00:45:35.301Z,18.31
2018-06-29T00:48:04.259Z,18.29
2018-06-29T00:50:32.901Z,18.26
2018-06-29T00:53:01.718Z,18.23
2018-06-29T00:55:30.597Z,18.20
2018-06-29T00:57:59.379Z,18.15
2018-06-29T01:00:28.368Z,18.11
2018-06-29T01:02:57.267Z,18.13
2018-06-29T01:05:26.283Z,18.07
2018-06-29T01:07:54.863Z,17.96
2018-06-29T01:10:23.392Z,17.90
2018-06-29T01:12:51.905Z,17.85
2018-06-29T01:15:20.600Z,17.83
2018-06-29T01:17:49.321Z,17.76
2018-06-29T01:20:17.823Z,17.72
2018-06-29T01:22:46.416Z,17.78
2018-06-29T01:25:14.991Z,17.71
2018-06-29T01:27:43.541Z,17.70
2018-06-29T01:30:12.090Z,17.63
2018-06-29T01:32:40.715Z,17.55
2018-06-29T01:35:09.460Z,17.55
2018-06-29T01:37:38.028Z,17.57
2018-06-29T01:40:06.576Z,17.52
2018-06-29T01:42:35.069Z,17.51
2018-06-29T01:45:04.028Z,17.42
2018-06-29T01:47:32.544Z,17.40
2018-06-29T01:53:00.462Z,17.32
2018-06-29T01:55:29.349Z,17.26
2018-06-29T01:57:58.140Z,17.21
2018-06-29T02:00:26.905Z,17.24
2018-06-29T02:02:55.971Z,17.25
2018-06-29T02:05:24.507Z,17.27
2018-06-29T02:07:53.526Z,17.21
2018-06-29T02:10:22.020Z,17.19
2018-06-29T02:12:50.865Z,17.14
2018-06-29T02:15:19.426Z,17.13
2018-06-29T02:17:48.014Z,17.12
2018-06-29T02:20:16.681Z,17.16
2018-06-29T02:22:45.198Z,17.09
2018-06-29T02:25:13.801Z,16.96
2018-06-29T02:27:43.167Z,16.95
2018-06-29T02:30:11.673Z,16.95
2018-06-29T02:32:40.329Z,16.87
2018-06-29T02:35:08.890Z,16.85
2018-06-29T02:37:37.767Z,16.75
2018-06-29T02:40:06.817Z,16.76
2018-06-29T02:42:35.289Z,16.70
2018-06-29T02:45:04.133Z,16.62
2018-06-29T02:47:32.729Z,16.25
2018-06-29T02:50:01.295Z,16.32
2018-06-29T02:52:29.864Z,16.39
2018-06-29T02:54:58.621Z,16.29
2018-06-29T02:57:27.181Z,16.18
2018-06-29T02:59:55.699Z,16.26
2018-06-29T03:02:24.280Z,16.02
2018-06-29T03:04:52.862Z,15.95
2018-06-29T03:07:21.692Z,15.88
2018-06-29T03:09:50.764Z,15.90
2018-06-29T03:12:19.408Z,15.84
2018-06-29T03:14:47.856Z,15.69
2018-06-29T03:17:16.372Z,15.86
2018-06-29T03:19:45.070Z,15.89
2018-06-29T03:22:13.786Z,15.91
2018-06-29T03:24:42.367Z,15.80
2018-06-29T03:27:11.379Z,15.56
2018-06-29T03:29:40.249Z,15.71
2018-06-29T03:32:09.033Z,15.70
2018-06-29T03:34:37.830Z,15.78
2018-06-29T03:37:06.635Z,15.71
2018-06-29T03:39:35.202Z,15.74
2018-06-29T03:42:04.044Z,15.78
2018-06-29T03:44:32.929Z,15.70
2018-06-29T03:47:01.531Z,15.74
2018-06-29T03:49:30.344Z,15.73
2018-06-29T03:51:58.921Z,15.73
2018-06-29T03:54:31.339Z,15.67
2018-06-29T03:57:01.795Z,15.75
2018-06-29T03:59:30.484Z,15.79
2018-06-29T04:01:58.981Z,15.80
2018-06-29T04:04:27.606Z,15.84
2018-06-29T04:06:56.597Z,15.80
2018-06-29T04:09:25.810Z,15.85
2018-06-29T04:11:54.570Z,15.83
2018-06-29T04:14:23.280Z,15.83
2018-06-29T04:16:51.829Z,15.86
2018-06-29T04:19:20.780Z,15.91
2018-06-29T04:21:49.422Z,15.97
2018-06-29T04:24:18.095Z,15.88
2018-06-29T04:26:46.814Z,15.96
2018-06-29T04:29:15.388Z,16.00
2018-06-29T04:31:43.950Z,16.00
2018-06-29T04:34:12.762Z,16.06
2018-06-29T04:36:41.451Z,16.06
2018-06-29T04:39:11.097Z,16.09
2018-06-29T04:41:39.866Z,16.17
2018-06-29T04:44:08.878Z,16.23
2018-06-29T04:46:37.560Z,16.25
2018-06-29T04:49:06.199Z,16.26
2018-06-29T04:51:35.201Z,16.28
2018-06-29T04:54:03.839Z,16.30
2018-06-29T04:56:32.407Z,16.34
2018-06-29T04:59:01.671Z,16.49
2018-06-29T05:01:30.219Z,16.64
2018-06-29T05:03:58.756Z,17.08
2018-06-29T05:06:27.214Z,17.98
2018-06-29T05:08:55.933Z,18.87
2018-06-29T05:11:24.647Z,18.86
2018-06-29T05:13:53.574Z,19.00
2018-06-29T05:16:22.270Z,18.86
2018-06-29T05:18:50.932Z,18.62
2018-06-29T05:21:19.493Z,18.54
2018-06-29T05:23:49.455Z,18.47
2018-06-29T05:26:18.053Z,18.38
2018-06-29T05:28:46.603Z,18.39
2018-06-29T05:31:15.405Z,18.43
2018-06-29T05:33:43.937Z,18.36
2018-06-29T05:36:12.677Z,18.42
2018-06-29T05:38:41.536Z,18.67
2018-06-29T05:41:10.111Z,19.66
2018-06-29T05:43:38.826Z,21.03
2018-06-29T05:46:07.394Z,21.69
2018-06-29T05:48:35.922Z,21.97
2018-06-29T05:51:04.514Z,22.19
2018-06-29T05:53:33.203Z,22.33
2018-06-29T05:56:01.879Z,22.44
2018-06-29T05:58:30.773Z,21.86
2018-06-29T06:00:59.415Z,22.31
2018-06-29T06:03:28.038Z,22.82
2018-06-29T06:05:56.566Z,23.16
2018-06-29T06:08:25.982Z,22.90
2018-06-29T06:10:54.673Z,23.74
2018-06-29T06:13:23.278Z,24.02
2018-06-29T06:15:51.746Z,24.66
2018-06-29T06:18:20.530Z,24.94
2018-06-29T06:20:49.076Z,24.65
2018-06-29T06:23:19.345Z,24.69
2018-06-29T06:25:47.947Z,25.20
2018-06-29T06:28:16.980Z,25.02
2018-06-29T06:30:45.757Z,24.43
2018-06-29T06:33:14.346Z,24.63
2018-06-29T06:35:43.430Z,24.92
2018-06-29T06:38:12.345Z,24.20
2018-06-29T06:40:40.904Z,24.57
2018-06-29T06:43:09.494Z,24.31
2018-06-29T06:45:38.006Z,24.14
2018-06-29T06:48:06.659Z,24.16
2018-06-29T06:50:35.506Z,24.15
2018-06-29T06:53:04.185Z,24.18
2018-06-29T06:55:32.983Z,23.93
2018-06-29T06:58:01.614Z,23.76
2018-06-29T07:00:30.113Z,23.89
2018-06-29T07:02:58.639Z,23.95
2018-06-29T07:05:27.121Z,23.72
2018-06-29T07:07:55.738Z,23.80
2018-06-29T07:10:24.417Z,23.66
2018-06-29T07:12:55.881Z,23.71
2018-06-29T07:15:24.942Z,23.72
2018-06-29T07:17:53.568Z,23.74
2018-06-29T07:20:22.147Z,23.78
2018-06-29T07:22:50.723Z,23.97
2018-06-29T07:25:19.383Z,24.03
2018-06-29T07:27:47.952Z,24.24
2018-06-29T07:30:16.875Z,24.59
2018-06-29T07:32:45.474Z,24.58
2018-06-29T07:35:13.976Z,24.83
2018-06-29T07:37:42.680Z,24.43
2018-06-29T07:40:11.345Z,24.96
2018-06-29T07:42:40.134Z,25.23
2018-06-29T07:45:08.797Z,25.56
2018-06-29T07:47:37.278Z,25.61
2018-06-29T07:50:06.175Z,25.56
2018-06-29T07:52:34.697Z,25.55
2018-06-29T07:55:03.449Z,25.45
2018-06-29T07:57:32.060Z,25.41
2018-06-29T08:00:00.561Z,25.40
2018-06-29T08:02:29.207Z,25.78
2018-06-29T08:04:57.771Z,25.52
2018-06-29T08:07:26.413Z,25.76
2018-06-29T08:09:54.937Z,25.84
2018-06-29T08:12:23.526Z,25.76
2018-06-29T08:14:52.184Z,25.78
2018-06-29T08:17:20.715Z,25.98
2018-06-29T08:19:49.331Z,25.84
2018-06-29T08:22:17.875Z,25.94
2018-06-29T08:24:57.556Z,25.91
2018-06-29T08:27:26.120Z,25.80
2018-06-29T08:29:55.362Z,25.89
2018-06-29T08:32:23.991Z,25.81
2018-06-29T08:34:52.505Z,25.76
2018-06-29T08:37:21.310Z,25.70
2018-06-29T08:39:50.150Z,25.92
2018-06-29T08:42:18.738Z,26.06
2018-06-29T08:44:47.353Z,26.13
2018-06-29T08:47:15.867Z,26.41
2018-06-29T08:49:44.563Z,26.37
2018-06-29T08:52:13.454Z,26.27
2018-06-29T08:54:41.974Z,26.42
2018-06-29T08:57:11.493Z,26.29
2018-06-29T08:59:40.229Z,26.40
2018-06-29T09:02:09.057Z,26.51
2018-06-29T09:04:37.653Z,26.49
2018-06-29T09:07:06.238Z,26.63
2018-06-29T09:09:34.873Z,26.66
2018-06-29T09:12:03.623Z,26.62
2018-06-29T09:14:32.154Z,26.51
2018-06-29T09:17:01.067Z,26.75
2018-06-29T09:19:29.809Z,26.75
2018-06-29T09:21:58.343Z,26.69
2018-06-29T09:24:26.959Z,26.85
2018-06-29T09:26:55.487Z,26.91
2018-06-29T09:29:24.049Z,26.66
2018-06-29T09:31:52.897Z,26.82
2018-06-29T09:34:21.557Z,26.98
2018-06-29T09:36:50.196Z,27.03
2018-06-29T09:39:18.788Z,27.14
2018-06-29T09:41:47.389Z,27.05
2018-06-29T09:44:15.914Z,27.10
2018-06-29T09:46:44.428Z,27.36
2018-06-29T09:49:12.977Z,27.50
2018-06-29T09:51:41.458Z,27.43
2018-06-29T09:54:09.969Z,27.38
2018-06-29T09:56:38.617Z,27.48
2018-06-29T09:59:07.202Z,27.55
2018-06-29T10:01:35.798Z,27.63
2018-06-29T10:04:04.369Z,27.86
2018-06-29T10:06:32.922Z,27.71
2018-06-29T10:09:01.974Z,27.79
2018-06-29T10:11:30.549Z,27.78
2018-06-29T10:13:59.327Z,27.72
2018-06-29T10:16:28.261Z,27.78
2018-06-29T10:18:57.460Z,27.82
2018-06-29T10:21:26.083Z,27.74
2018-06-29T10:23:54.660Z,27.53
2018-06-29T10:26:23.371Z,27.73
2018-06-29T10:28:51.952Z,27.76
2018-06-29T10:31:20.492Z,27.94
2018-06-29T10:33:49.236Z,28.03
2018-06-29T10:36:17.768Z,28.03
2018-06-29T10:38:46.541Z,28.01
2018-06-29T10:41:14.989Z,27.94
2018-06-29T10:43:43.690Z,28.23
2018-06-29T10:46:12.448Z,28.18
2018-06-29T10:48:41.189Z,28.02
2018-06-29T10:51:09.781Z,28.08
2018-06-29T10:53:38.306Z,28.19
2018-06-29T10:56:07.231Z,28.05
2018-06-29T10:58:35.884Z,27.88
2018-06-29T11:01:04.562Z,28.01
2018-06-29T11:03:33.255Z,27.95
2018-06-29T11:06:01.900Z,27.87
2018-06-29T11:08:30.620Z,27.98
2018-06-29T11:10:59.328Z,28.24
2018-06-29T11:13:27.897Z,28.38
2018-06-29T11:15:56.572Z,28.34
2018-06-29T11:18:25.111Z,28.21
2018-06-29T11:20:53.794Z,28.21
2018-06-29T11:23:22.489Z,28.34
2018-06-29T11:25:51.175Z,28.21
2018-06-29T11:28:19.762Z,28.32
2018-06-29T11:30:48.531Z,28.30
2018-06-29T11:33:17.113Z,28.33
2018-06-29T11:35:45.785Z,27.87
2018-06-29T11:38:14.308Z,27.95
2018-06-29T11:40:42.895Z,28.03
2018-06-29T11:43:11.434Z,28.26
2018-06-29T11:45:40.031Z,28.35
2018-06-29T11:48:08.606Z,28.45
2018-06-29T11:50:37.204Z,28.59
2018-06-29T11:53:05.865Z,28.53
2018-06-29T11:55:34.649Z,28.65
2018-06-29T11:58:03.774Z,28.70
2018-06-29T12:00:32.434Z,28.48
2018-06-29T12:03:00.997Z,28.73
2018-06-29T12:05:29.807Z,29.00
2018-06-29T12:07:58.366Z,28.80
2018-06-29T12:10:26.949Z,29.11
2018-06-29T12:12:55.457Z,29.13
2018-06-29T12:15:23.975Z,28.92
2018-06-29T12:17:52.737Z,28.74
2018-06-29T12:20:21.239Z,29.20
2018-06-29T12:22:49.724Z,29.30
2018-06-29T12:25:18.193Z,29.50
2018-06-29T12:27:46.772Z,29.35
2018-06-29T12:30:16.424Z,29.32
2018-06-29T12:32:45.294Z,29.58
2018-06-29T12:35:14.317Z,29.34
2018-06-29T12:37:42.831Z,29.26
2018-06-29T12:40:11.790Z,29.15
2018-06-29T12:42:40.539Z,29.04
2018-06-29T12:45:09.105Z,29.11
2018-06-29T12:47:37.665Z,28.99
2018-06-29T12:50:06.329Z,29.00
2018-06-29T12:52:34.933Z,28.82
2018-06-29T12:55:03.654Z,28.80
2018-06-29T12:57:32.257Z,28.82
2018-06-29T13:00:00.871Z,28.72
2018-06-29T13:02:30.153Z,28.63
2018-06-29T13:04:58.669Z,28.57
2018-06-29T13:07:27.220Z,28.49
2018-06-29T13:09:57.167Z,28.54
2018-06-29T13:12:25.841Z,28.54
2018-06-29T13:14:54.339Z,28.51
2018-06-29T13:17:22.963Z,28.51
2018-06-29T13:19:51.720Z,28.43
2018-06-29T13:22:20.798Z,28.46
2018-06-29T13:24:53.575Z,28.41
2018-06-29T13:27:23.645Z,28.44
2018-06-29T13:29:52.347Z,28.56
2018-06-29T13:32:21.323Z,28.61
2018-06-29T13:34:49.896Z,28.73
2018-06-29T13:37:18.596Z,28.78
2018-06-29T13:39:47.539Z,28.65
2018-06-29T13:42:16.581Z,28.66
2018-06-29T13:44:47.792Z,28.63
2018-06-29T13:47:22.304Z,28.73
2018-06-29T13:49:56.552Z,28.73
2018-06-29T13:52:25.066Z,28.82
2018-06-29T13:54:53.888Z,28.77
2018-06-29T13:57:22.596Z,28.91
2018-06-29T13:59:53.630Z,28.77
2018-06-29T14:02:22.908Z,28.77
2018-06-29T14:04:51.892Z,28.81
2018-06-29T14:07:20.472Z,29.01
2018-06-29T14:09:49.260Z,28.85
2018-06-29T14:12:18.445Z,28.97
2018-06-29T14:14:47.332Z,28.94
2018-06-29T14:17:16.377Z,29.08
2018-06-29T14:19:45.558Z,29.08
2018-06-29T14:22:14.221Z,29.15
2018-06-29T14:24:43.457Z,29.07
2018-06-29T14:27:12.107Z,29.17
2018-06-29T14:29:41.032Z,29.15
2018-06-29T14:32:10.193Z,29.24
2018-06-29T14:34:39.060Z,29.20
2018-06-29T14:37:07.658Z,29.16
2018-06-29T14:39:36.379Z,29.07
2018-06-29T14:42:04.982Z,29.04
2018-06-29T14:44:33.528Z,29.01
2018-06-29T14:47:02.203Z,28.95
2018-06-29T14:49:30.778Z,28.95
2018-06-29T14:51:59.284Z,29.02
2018-06-29T14:54:27.851Z,28.89
2018-06-29T14:56:56.813Z,28.92
2018-06-29T14:59:26.574Z,28.94
2018-06-29T15:01:55.266Z,28.97
2018-06-29T15:04:24.096Z,28.82
2018-06-29T15:06:52.731Z,28.81
2018-06-29T15:09:21.348Z,29.09
2018-06-29T15:11:49.925Z,29.06
2018-06-29T15:14:18.714Z,29.15
2018-06-29T15:16:47.912Z,29.09
2018-06-29T15:19:16.435Z,29.08
2018-06-29T15:21:45.019Z,29.20
2018-06-29T15:24:13.993Z,29.25
2018-06-29T15:26:42.795Z,29.23
2018-06-29T15:29:11.534Z,29.23
2018-06-29T15:31:40.224Z,29.11
2018-06-29T15:34:08.726Z,29.14
2018-06-29T15:36:37.258Z,29.06
2018-06-29T15:39:08.964Z,29.16
2018-06-29T15:41:37.766Z,29.10
2018-06-29T15:44:06.449Z,29.00
2018-06-29T15:46:35.124Z,29.17
2018-06-29T15:49:03.706Z,29.15
2018-06-29T15:51:32.390Z,29.07
2018-06-29T15:54:01.257Z,28.92
2018-06-29T15:56:29.737Z,28.89
2018-06-29T15:58:58.552Z,28.98
2018-06-29T16:01:27.863Z,28.85
2018-06-29T16:03:56.684Z,28.84
2018-06-29T16:06:26.250Z,28.91
2018-06-29T16:08:54.870Z,28.81
2018-06-29T16:11:23.754Z,28.86
2018-06-29T16:13:52.379Z,28.77
2018-06-29T16:16:21.707Z,28.64
2018-06-29T16:18:50.288Z,28.62
2018-06-29T16:21:18.901Z,28.41
2018-06-29T16:23:47.833Z,28.38
2018-06-29T16:26:16.362Z,28.32
2018-06-29T16:28:45.263Z,28.28
2018-06-29T16:31:13.909Z,28.13
2018-06-29T16:33:42.791Z,28.16
2018-06-29T16:36:11.691Z,27.94
2018-06-29T16:38:40.441Z,27.94
2018-06-29T16:41:08.963Z,27.94
2018-06-29T16:43:37.978Z,28.07
2018-06-29T16:46:06.764Z,27.84
2018-06-29T16:48:35.523Z,27.62
2018-06-29T16:51:04.843Z,27.71
2018-06-29T16:53:33.686Z,27.75
2018-06-29T16:56:02.480Z,27.64
2018-06-29T16:58:31.094Z,27.46
2018-06-29T17:00:59.992Z,27.54
2018-06-29T17:03:28.580Z,27.50
2018-06-29T17:05:57.296Z,27.43
2018-06-29T17:08:26.114Z,27.47
2018-06-29T17:10:54.633Z,27.29
2018-06-29T17:13:23.515Z,27.43
2018-06-29T17:15:52.105Z,27.42
2018-06-29T17:18:20.655Z,27.32
2018-06-29T17:20:49.087Z,27.25
2018-06-29T17:23:17.637Z,27.05
2018-06-29T17:25:46.434Z,26.99
2018-06-29T17:28:14.959Z,26.78
2018-06-29T17:30:43.862Z,26.75
2018-06-29T17:33:12.502Z,26.67
2018-06-29T17:35:41.081Z,26.66
2018-06-29T17:38:09.811Z,26.52
2018-06-29T17:40:38.352Z,26.60
2018-06-29T17:43:06.953Z,26.52
2018-06-29T17:45:35.473Z,26.45
2018-06-29T17:48:03.925Z,26.41
2018-06-29T17:50:32.449Z,26.41
2018-06-29T17:53:00.943Z,26.29
2018-06-29T17:55:31.610Z,26.24
2018-06-29T17:58:01.489Z,26.17
2018-06-29T18:00:30.515Z,26.17
2018-06-29T18:03:00.468Z,26.13
2018-06-29T18:05:30.220Z,26.02
2018-06-29T18:07:58.754Z,26.00
2018-06-29T18:10:27.530Z,25.94
2018-06-29T18:12:56.315Z,25.95
2018-06-29T18:15:25.020Z,25.83
2018-06-29T18:17:53.698Z,25.86
2018-06-29T18:20:23.377Z,25.82
2018-06-29T18:22:51.932Z,25.71
2018-06-29T18:25:22.909Z,25.58
2018-06-29T18:27:51.458Z,25.51
2018-06-29T18:30:28.957Z,25.43
2018-06-29T18:32:59.207Z,25.46
2018-06-29T18:35:31.187Z,25.36
2018-06-29T18:37:59.769Z,25.31
2018-06-29T18:40:28.340Z,25.29
2018-06-29T18:42:59.653Z,25.27
2018-06-29T18:45:32.491Z,25.18
2018-06-29T18:48:03.376Z,25.13
2018-06-29T18:50:32.007Z,25.07
2018-06-29T18:53:00.959Z,24.94
2018-06-29T18:55:29.642Z,24.96
2018-06-29T18:57:58.951Z,24.91
2018-06-29T19:00:27.624Z,24.81
2018-06-29T19:02:57.044Z,24.74
2018-06-29T19:05:26.321Z,24.73
2018-06-29T19:07:55.808Z,24.69
2018-06-29T19:10:24.785Z,24.62
2018-06-29T19:12:53.736Z,24.67
2018-06-29T19:15:22.348Z,24.52
2018-06-29T19:17:53.109Z,24.42
2018-06-29T19:20:22.352Z,24.39
2018-06-29T19:22:52.432Z,24.35
2018-06-29T19:25:21.356Z,24.32
2018-06-29T19:27:51.668Z,24.26
2018-06-29T19:30:22.302Z,24.18
2018-06-29T19:32:54.933Z,24.10
2018-06-29T19:35:26.401Z,24.02
2018-06-29T19:37:57.293Z,24.01
2018-06-29T19:40:26.272Z,23.99
2018-06-29T19:42:57.177Z,23.91
2018-06-29T19:45:28.499Z,23.89
2018-06-29T19:47:58.573Z,23.85
2018-06-29T19:50:27.698Z,23.78
2018-06-29T19:52:56.895Z,23.76
2018-06-29T19:55:26.137Z,23.66
2018-06-29T19:57:55.334Z,23.60
2018-06-29T20:00:24.011Z,23.57
2018-06-29T20:02:54.316Z,23.46
2018-06-29T20:05:27.038Z,23.41
2018-06-29T20:07:56.482Z,23.33
2018-06-29T20:10:26.824Z,23.28
2018-06-29T20:12:56.347Z,23.26
2018-06-29T20:15:25.027Z,23.17
2018-06-29T20:18:00.478Z,23.13
2018-06-29T20:20:31.340Z,23.09
2018-06-29T20:23:00.065Z,22.97
2018-06-29T20:25:28.792Z,22.98
2018-06-29T20:27:57.336Z,22.90
2018-06-29T20:30:26.702Z,22.83
2018-06-29T20:32:55.671Z,22.65
2018-06-29T20:35:24.383Z,22.59
2018-06-29T20:37:55.751Z,22.54
2018-06-29T20:40:24.298Z,22.43
2018-06-29T20:42:53.417Z,22.30
2018-06-29T20:45:22.567Z,22.18
2018-06-29T20:47:51.141Z,22.13
2018-06-29T20:50:19.840Z,22.00
2018-06-29T20:55:45.114Z,21.76
2018-06-29T20:58:13.973Z,21.74
2018-06-29T21:00:42.602Z,21.60
2018-06-29T21:03:12.140Z,21.51
2018-06-29T21:05:40.708Z,21.42
2018-06-29T21:08:09.502Z,21.31
2018-06-29T21:10:38.348Z,21.30
2018-06-29T21:13:07.214Z,21.22
2018-06-29T21:15:35.919Z,21.02
2018-06-29T21:18:04.793Z,20.94
2018-06-29T21:20:34.266Z,20.85
2018-06-29T21:23:02.813Z,20.74
2018-06-29T21:25:31.878Z,20.68
2018-06-29T21:28:00.351Z,20.69
2018-06-29T21:30:28.956Z,20.52
2018-06-29T21:32:57.786Z,20.34
2018-06-29T21:35:26.370Z,20.30
2018-06-29T21:37:55.194Z,20.21
2018-06-29T21:40:24.017Z,20.13
2018-06-29T21:42:53.037Z,20.04
2018-06-29T21:45:21.569Z,20.03
2018-06-29T21:47:50.161Z,19.90
2018-06-29T21:50:18.674Z,19.86
2018-06-29T21:52:47.178Z,19.87
2018-06-29T21:55:15.681Z,19.75
2018-06-29T21:57:44.257Z,19.72
2018-06-29T22:00:14.096Z,19.61
2018-06-29T22:02:42.669Z,19.58
2018-06-29T22:05:12.155Z,19.56
2018-06-29T22:07:41.167Z,19.51
2018-06-29T22:10:10.339Z,19.38
2018-06-29T22:12:38.930Z,19.30
2018-06-29T22:15:14.664Z,19.28
2018-06-29T22:17:43.348Z,19.30
2018-06-29T22:20:11.919Z,19.18
2018-06-29T22:22:40.394Z,19.15
2018-06-29T22:25:10.494Z,19.13
2018-06-29T22:27:39.271Z,19.02
2018-06-29T22:30:08.138Z,18.93
2018-06-29T22:32:36.788Z,18.87
2018-06-29T22:35:05.777Z,18.87
2018-06-29T22:37:34.891Z,18.84
2018-06-29T22:40:03.767Z,18.77
2018-06-29T22:42:32.526Z,18.75
2018-06-29T22:45:01.022Z,18.69
2018-06-29T22:47:29.749Z,18.63
2018-06-29T22:49:58.331Z,18.57
2018-06-29T22:52:26.891Z,18.50
2018-06-29T22:54:55.378Z,18.53
2018-06-29T22:57:25.082Z,18.41
2018-06-29T22:59:53.670Z,18.34
2018-06-29T23:02:22.229Z,18.27
2018-06-29T23:04:50.749Z,18.35
2018-06-29T23:07:19.829Z,18.25
2018-06-29T23:09:48.350Z,18.20
2018-06-29T23:12:17.028Z,18.11
2018-06-29T23:14:45.583Z,18.01
2018-06-29T23:17:14.149Z,17.94
2018-06-29T23:19:42.896Z,17.87
2018-06-29T23:22:11.452Z,17.88
2018-06-29T23:24:39.944Z,17.75
2018-06-29T23:27:08.541Z,17.70
2018-06-29T23:29:37.301Z,17.69
2018-06-29T23:32:05.865Z,17.54
2018-06-29T23:34:34.672Z,17.57
2018-06-29T23:37:03.220Z,17.48
2018-06-29T23:39:31.739Z,17.47
2018-06-29T23:42:00.322Z,17.38
2018-06-29T23:44:28.799Z,17.37
2018-06-29T23:46:57.333Z,17.31
2018-06-29T23:49:25.911Z,17.28
2018-06-29T23:51:54.469Z,17.20
2018-06-29T23:54:23.263Z,17.19
2018-06-29T23:56:52.066Z,17.24
2018-06-29T23:59:20.670Z,17.27
